Time;durP1;ratioP1;P1;durP2;ratioP2;P2;SDS_P1;SDS_P2;PMS_P1;PMS_P2;Temp;Humidity;BMP_temperature;BMP_pressure;BME280_temperature;BME280_humidity;BME280_pressure;Samples;Min_cycle;Max_cycle;Signal;HPM_P1;HPM_P2
2023/05/08 00:02:15;;;;;;;;;;;19.00;45.30;;;;;;5122227;28;19919;-54
2023/05/08 00:04:41;;;;;;;;;;;19.00;45.30;;;;;;5125011;28;20340;-54
2023/05/08 00:07:06;;;;;;;;;;;18.90;45.30;;;;;;5101507;28;19919;-53
2023/05/08 00:09:31;;;;;;;;;;;18.90;45.20;;;;;;5104325;28;19965;-53
2023/05/08 00:11:57;;;;;;;;;;;18.90;45.30;;;;;;5117976;28;19943;-53
2023/05/08 00:14:22;;;;;;;;;;;18.80;45.00;;;;;;5114957;28;20436;-53
2023/05/08 00:16:48;;;;;;;;;;;18.90;45.10;;;;;;5116120;28;19967;-54
2023/05/08 00:19:13;;;;;;;;;;;18.80;45.00;;;;;;5096794;28;19915;-54
2023/05/08 00:21:39;;;;;;;;;;;18.80;45.20;;;;;;5121286;28;19924;-53
2023/05/08 00:24:04;;;;;;;;;;;18.80;45.30;;;;;;5121437;28;20672;-54
2023/05/08 00:26:30;;;;;;;;;;;18.70;45.20;;;;;;5122479;28;20469;-54
2023/05/08 00:28:55;;;;;;;;;;;18.80;45.20;;;;;;5100178;28;20277;-54
2023/05/08 00:31:21;;;;;;;;;;;18.80;45.20;;;;;;5118994;28;19919;-54
2023/05/08 00:33:46;;;;;;;;;;;18.80;45.10;;;;;;5120684;28;19937;-54
2023/05/08 00:36:14;;;;;;;;;;;18.70;45.10;;;;;;5124013;27;19937;-53
2023/05/08 00:38:40;;;;;;;;;;;18.70;45.00;;;;;;5118327;27;19984;-55
2023/05/08 00:41:05;;;;;;;;;;;18.70;45.00;;;;;;5120010;27;20387;-54
2023/05/08 00:43:31;;;;;;;;;;;18.70;45.10;;;;;;5121465;27;20021;-54
2023/05/08 00:45:57;;;;;;;;;;;18.70;44.90;;;;;;5126350;27;19915;-54
2023/05/08 00:48:23;;;;;;;;;;;18.70;45.20;;;;;;5123190;27;19915;-53
2023/05/08 00:50:49;;;;;;;;;;;18.70;45.20;;;;;;5110051;27;20333;-54
2023/05/08 00:53:14;;;;;;;;;;;18.70;45.10;;;;;;5121860;27;19916;-54
2023/05/08 00:55:40;;;;;;;;;;;18.60;45.00;;;;;;5126847;27;19919;-54
2023/05/08 00:58:05;;;;;;;;;;;18.60;44.90;;;;;;5120313;27;19981;-53
2023/05/08 01:00:31;;;;;;;;;;;18.70;45.10;;;;;;5117949;27;20432;-54
2023/05/08 01:02:57;;;;;;;;;;;18.60;44.80;;;;;;5105341;27;20337;-54
2023/05/08 01:05:23;;;;;;;;;;;18.60;44.80;;;;;;5106331;27;19960;-54
2023/05/08 01:07:49;;;;;;;;;;;18.60;44.80;;;;;;5122291;27;19920;-54
2023/05/08 01:10:15;;;;;;;;;;;18.60;44.70;;;;;;5122197;27;19911;-53
2023/05/08 01:12:46;;;;;;;;;;;18.70;44.60;;;;;;5118284;27;19912;-54
2023/05/08 01:15:16;;;;;;;;;;;18.70;44.50;;;;;;5123707;27;19918;-54
2023/05/08 01:17:44;;;;;;;;;;;18.90;44.70;;;;;;5103598;27;19961;-53
2023/05/08 01:20:16;;;;;;;;;;;19.30;43.60;;;;;;5103314;27;19963;-53
2023/05/08 01:22:41;;;;;;;;;;;19.70;42.50;;;;;;5128263;27;19923;-53
2023/05/08 01:25:15;;;;;;;;;;;20.10;41.80;;;;;;5107376;27;19911;-53
2023/05/08 01:27:41;;;;;;;;;;;20.40;41.40;;;;;;5107548;27;20055;-53
2023/05/08 01:30:10;;;;;;;;;;;20.40;41.30;;;;;;5117829;27;20014;-53
2023/05/08 01:32:40;;;;;;;;;;;20.30;41.20;;;;;;5099447;27;20014;-54
2023/05/08 01:35:09;;;;;;;;;;;20.40;41.10;;;;;;5123748;27;19912;-54
2023/05/08 01:37:49;;;;;;;;;;;20.60;40.80;;;;;;5104503;27;19912;-53
2023/05/08 01:40:17;;;;;;;;;;;20.80;40.40;;;;;;5091402;28;19921;-54
2023/05/08 01:42:44;;;;;;;;;;;21.10;40.00;;;;;;5074324;28;19930;-54
2023/05/08 01:45:11;;;;;;;;;;;21.30;39.50;;;;;;5076537;28;19916;-54
2023/05/08 01:47:37;;;;;;;;;;;21.50;39.10;;;;;;5081765;28;20372;-54
2023/05/08 01:50:04;;;;;;;;;;;22.00;38.40;;;;;;5084461;28;19928;-54
2023/05/08 01:52:41;;;;;;;;;;;22.20;38.00;;;;;;5080432;28;19913;-53
2023/05/08 01:55:11;;;;;;;;;;;22.40;37.70;;;;;;5081784;28;19912;-54
2023/05/08 01:57:41;;;;;;;;;;;22.40;37.40;;;;;;5078279;28;19943;-54
2023/05/08 02:00:07;;;;;;;;;;;22.50;37.10;;;;;;5078369;28;19920;-54
2023/05/08 02:02:32;;;;;;;;;;;22.50;37.20;;;;;;5082367;28;20357;-53
2023/05/08 02:04:58;;;;;;;;;;;22.60;37.00;;;;;;5062951;28;20389;-53
2023/05/08 02:07:23;;;;;;;;;;;22.50;36.80;;;;;;5079099;28;19916;-54
2023/05/08 02:09:49;;;;;;;;;;;22.50;36.90;;;;;;5082477;28;20703;-53
2023/05/08 02:12:15;;;;;;;;;;;22.60;36.70;;;;;;5079876;28;19923;-53
2023/05/08 02:14:40;;;;;;;;;;;22.60;36.60;;;;;;5079680;28;20430;-53
2023/05/08 02:17:08;;;;;;;;;;;22.70;36.30;;;;;;5081515;28;19955;-54
2023/05/08 02:19:33;;;;;;;;;;;22.70;36.30;;;;;;5083309;28;19942;-54
2023/05/08 02:21:59;;;;;;;;;;;22.70;36.40;;;;;;5079967;28;19920;-53
2023/05/08 02:24:24;;;;;;;;;;;22.70;36.40;;;;;;5074546;28;19913;-54
2023/05/08 02:26:50;;;;;;;;;;;22.70;36.40;;;;;;5081366;28;19915;-53
2023/05/08 02:29:15;;;;;;;;;;;22.60;36.60;;;;;;5075084;28;20379;-55
2023/05/08 02:31:41;;;;;;;;;;;22.40;37.00;;;;;;5079040;28;19998;-54
2023/05/08 02:34:06;;;;;;;;;;;22.20;37.10;;;;;;5075546;28;19920;-54
2023/05/08 02:36:31;;;;;;;;;;;22.10;37.30;;;;;;5082931;28;20951;-54
2023/05/08 02:38:57;;;;;;;;;;;22.00;37.60;;;;;;5077787;28;20049;-54
2023/05/08 02:41:24;;;;;;;;;;;21.80;37.90;;;;;;5115607;27;19931;-54
2023/05/08 02:43:50;;;;;;;;;;;21.70;38.10;;;;;;5089044;27;19989;-53
2023/05/08 02:46:25;;;;;;;;;;;21.60;38.20;;;;;;5120915;27;19920;-54
2023/05/08 02:49:29;;;;;;;;;;;21.50;38.30;;;;;;5122917;27;20360;-53
2023/05/08 02:52:01;;;;;;;;;;;21.50;38.50;;;;;;5023510;28;19920;-54
2023/05/08 02:54:32;;;;;;;;;;;21.40;38.40;;;;;;5022275;28;19913;-53
2023/05/08 02:57:02;;;;;;;;;;;21.40;38.60;;;;;;5076331;27;19911;-53
2023/05/08 02:59:29;;;;;;;;;;;21.40;38.40;;;;;;5093943;27;20307;-54
2023/05/08 03:02:14;;;;;;;;;;;21.40;38.40;;;;;;5121879;27;19941;-54
2023/05/08 03:04:47;;;;;;;;;;;21.50;38.60;;;;;;5101924;27;19926;-53
2023/05/08 03:07:13;;;;;;;;;;;21.50;38.50;;;;;;5120251;27;19922;-54
2023/05/08 03:09:40;;;;;;;;;;;21.50;38.50;;;;;;5121129;27;19920;-54
2023/05/08 03:12:08;;;;;;;;;;;21.50;38.30;;;;;;5119502;27;19955;-53
2023/05/08 03:14:35;;;;;;;;;;;21.60;38.30;;;;;;5119132;27;20425;-53
2023/05/08 03:17:00;;;;;;;;;;;21.60;38.10;;;;;;5116397;27;19915;-53
2023/05/08 03:19:29;;;;;;;;;;;21.70;38.10;;;;;;5123902;27;19942;-53
2023/05/08 03:21:54;;;;;;;;;;;21.70;38.00;;;;;;5120307;27;20066;-53
2023/05/08 03:24:20;;;;;;;;;;;21.60;38.00;;;;;;5121986;27;20026;-54
2023/05/08 03:26:45;;;;;;;;;;;21.70;38.10;;;;;;5118238;27;19957;-54
2023/05/08 03:29:12;;;;;;;;;;;21.80;37.90;;;;;;5119425;27;19912;-53
2023/05/08 03:31:37;;;;;;;;;;;21.80;37.80;;;;;;5121186;27;20259;-54
2023/05/08 03:34:03;;;;;;;;;;;21.80;38.00;;;;;;5123283;27;19915;-54
2023/05/08 03:36:28;;;;;;;;;;;21.70;38.10;;;;;;5124111;27;20304;-54
2023/05/08 03:38:54;;;;;;;;;;;21.60;38.80;;;;;;5104347;27;19915;-53
2023/05/08 03:41:20;;;;;;;;;;;21.70;38.10;;;;;;5102117;28;19948;-54
2023/05/08 03:43:45;;;;;;;;;;;21.80;37.80;;;;;;5116067;27;19955;-54
2023/05/08 03:46:11;;;;;;;;;;;21.90;37.70;;;;;;5104813;28;19912;-53
2023/05/08 03:48:36;;;;;;;;;;;22.10;37.30;;;;;;5103170;28;20254;-54
2023/05/08 03:51:02;;;;;;;;;;;22.20;37.30;;;;;;5100258;28;20727;-53
2023/05/08 03:53:28;;;;;;;;;;;22.20;37.20;;;;;;5101747;28;20386;-54
2023/05/08 03:55:53;;;;;;;;;;;22.10;37.20;;;;;;5123474;27;19919;-53
2023/05/08 03:58:27;;;;;;;;;;;22.10;37.20;;;;;;5118155;27;19916;-54
2023/05/08 04:00:58;;;;;;;;;;;22.00;37.30;;;;;;5096724;28;19916;-54
2023/05/08 04:03:28;;;;;;;;;;;21.90;37.60;;;;;;5126220;27;20402;-53
2023/05/08 04:05:58;;;;;;;;;;;21.80;37.60;;;;;;5122537;28;19915;-54
2023/05/08 04:08:26;;;;;;;;;;;21.70;37.90;;;;;;5102775;28;20439;-54
2023/05/08 04:10:54;;;;;;;;;;;21.50;38.00;;;;;;5125258;27;21136;-53
2023/05/08 04:13:21;;;;;;;;;;;21.40;38.30;;;;;;5100693;27;20010;-54
2023/05/08 04:15:50;;;;;;;;;;;21.30;38.40;;;;;;5106211;27;20368;-53
2023/05/08 04:18:17;;;;;;;;;;;21.30;38.50;;;;;;5120702;27;19951;-54
2023/05/08 04:20:45;;;;;;;;;;;21.40;38.30;;;;;;5123955;27;19926;-54
2023/05/08 04:23:10;;;;;;;;;;;21.50;38.10;;;;;;5122711;27;19973;-54
2023/05/08 04:25:36;;;;;;;;;;;21.70;37.80;;;;;;5105259;27;20445;-54
2023/05/08 04:28:02;;;;;;;;;;;21.90;37.40;;;;;;5107468;27;20267;-54
2023/05/08 04:30:27;;;;;;;;;;;22.20;37.10;;;;;;5118446;27;19951;-53
2023/05/08 04:32:53;;;;;;;;;;;22.20;36.80;;;;;;5123011;27;19994;-54
2023/05/08 04:35:18;;;;;;;;;;;22.30;36.50;;;;;;5127525;27;19946;-53
2023/05/08 04:37:44;;;;;;;;;;;22.40;36.60;;;;;;5115658;27;19915;-53
2023/05/08 04:40:09;;;;;;;;;;;22.10;36.80;;;;;;5084071;28;20375;-53
2023/05/08 04:42:35;;;;;;;;;;;22.10;36.90;;;;;;5107339;28;19919;-54
2023/05/08 04:45:01;;;;;;;;;;;21.80;37.20;;;;;;5107040;28;19919;-54
2023/05/08 04:47:26;;;;;;;;;;;21.70;37.40;;;;;;5106169;28;19912;-53
2023/05/08 04:49:52;;;;;;;;;;;21.60;37.60;;;;;;5104361;28;19920;-53
2023/05/08 04:52:17;;;;;;;;;;;21.50;37.50;;;;;;5100045;28;19920;-53
2023/05/08 04:54:43;;;;;;;;;;;21.70;37.30;;;;;;5101960;28;19922;-53
2023/05/08 04:57:08;;;;;;;;;;;21.90;37.10;;;;;;5104708;28;19959;-53
2023/05/08 04:59:33;;;;;;;;;;;21.90;36.80;;;;;;5098447;28;19912;-53
2023/05/08 05:02:02;;;;;;;;;;;21.90;37.00;;;;;;5105301;28;19987;-53
2023/05/08 05:04:28;;;;;;;;;;;21.70;37.30;;;;;;5103672;28;19957;-54
2023/05/08 05:06:53;;;;;;;;;;;21.60;37.40;;;;;;5104337;28;20349;-55
2023/05/08 05:09:19;;;;;;;;;;;21.60;37.40;;;;;;5099080;28;20464;-53
2023/05/08 05:11:44;;;;;;;;;;;21.80;37.40;;;;;;5100861;28;19919;-53
2023/05/08 05:14:10;;;;;;;;;;;21.90;37.00;;;;;;5105488;28;19911;-53
2023/05/08 05:16:35;;;;;;;;;;;22.20;36.60;;;;;;5101624;28;19980;-53
2023/05/08 05:19:01;;;;;;;;;;;22.30;36.40;;;;;;5105103;28;19980;-54
2023/05/08 05:21:26;;;;;;;;;;;22.30;36.20;;;;;;5102934;28;19943;-53
2023/05/08 05:23:52;;;;;;;;;;;22.50;35.70;;;;;;5099683;28;20363;-53
2023/05/08 05:26:17;;;;;;;;;;;22.60;35.60;;;;;;5100105;28;20381;-54
2023/05/08 05:28:43;;;;;;;;;;;22.60;35.60;;;;;;5103086;28;19973;-54
2023/05/08 05:31:08;;;;;;;;;;;22.60;35.60;;;;;;5096580;28;20382;-54
2023/05/08 05:33:34;;;;;;;;;;;22.50;35.60;;;;;;5099342;28;19919;-53
2023/05/08 05:35:59;;;;;;;;;;;22.60;35.60;;;;;;5101242;28;19916;-54
2023/05/08 05:38:25;;;;;;;;;;;22.60;35.60;;;;;;5103158;28;19915;-53
2023/05/08 05:40:50;;;;;;;;;;;22.50;35.60;;;;;;5117348;27;20302;-54
2023/05/08 05:43:16;;;;;;;;;;;22.40;35.90;;;;;;5124446;27;19919;-53
2023/05/08 05:45:41;;;;;;;;;;;22.20;36.10;;;;;;5121302;27;20192;-54
2023/05/08 05:48:07;;;;;;;;;;;22.10;36.30;;;;;;5120163;27;19912;-54
2023/05/08 05:50:32;;;;;;;;;;;21.90;36.60;;;;;;5104635;27;19916;-54
2023/05/08 05:52:58;;;;;;;;;;;21.90;36.70;;;;;;5116208;27;19926;-53
2023/05/08 05:55:23;;;;;;;;;;;21.70;36.80;;;;;;5124689;27;19922;-53
2023/05/08 05:57:48;;;;;;;;;;;21.40;37.30;;;;;;5120244;27;19915;-53
2023/05/08 06:00:15;;;;;;;;;;;21.30;37.40;;;;;;5121362;27;20512;-54
2023/05/08 06:02:40;;;;;;;;;;;21.40;37.50;;;;;;5118750;27;19926;-53
2023/05/08 06:05:06;;;;;;;;;;;21.40;37.50;;;;;;5121707;27;20471;-54
2023/05/08 06:07:32;;;;;;;;;;;21.40;37.30;;;;;;5126349;27;19912;-54
2023/05/08 06:09:57;;;;;;;;;;;21.30;37.50;;;;;;5104457;27;19991;-54
2023/05/08 06:12:23;;;;;;;;;;;21.30;37.50;;;;;;5117674;27;19915;-53
2023/05/08 06:14:50;;;;;;;;;;;21.40;37.10;;;;;;5118776;27;19926;-54
2023/05/08 06:17:16;;;;;;;;;;;21.50;37.00;;;;;;5122398;27;19915;-54
2023/05/08 06:19:41;;;;;;;;;;;21.50;36.90;;;;;;5123718;27;20287;-54
2023/05/08 06:22:07;;;;;;;;;;;21.60;36.70;;;;;;5118579;27;20386;-54
2023/05/08 06:24:34;;;;;;;;;;;21.70;36.40;;;;;;5121249;27;19926;-54
2023/05/08 06:26:59;;;;;;;;;;;21.80;36.30;;;;;;5119629;27;20408;-54
2023/05/08 06:29:25;;;;;;;;;;;21.80;36.30;;;;;;5122178;27;20002;-53
2023/05/08 06:31:50;;;;;;;;;;;21.80;36.40;;;;;;5127762;27;19911;-54
2023/05/08 06:34:16;;;;;;;;;;;21.70;36.50;;;;;;5127472;27;20006;-54
2023/05/08 06:36:41;;;;;;;;;;;21.70;36.70;;;;;;5107154;27;19911;-54
2023/05/08 06:39:06;;;;;;;;;;;21.70;36.50;;;;;;5126187;27;19919;-54
2023/05/08 06:41:32;;;;;;;;;;;22.00;36.30;;;;;;5122927;27;19924;-54
2023/05/08 06:43:58;;;;;;;;;;;22.20;36.00;;;;;;5103544;27;20041;-54
2023/05/08 06:46:23;;;;;;;;;;;22.40;35.60;;;;;;5125157;27;19922;-54
2023/05/08 06:48:49;;;;;;;;;;;22.40;35.80;;;;;;5126477;27;20002;-54
2023/05/08 06:51:14;;;;;;;;;;;22.30;35.90;;;;;;5125941;27;20379;-54
2023/05/08 06:53:40;;;;;;;;;;;22.20;36.20;;;;;;5126484;27;20332;-55
2023/05/08 06:56:05;;;;;;;;;;;22.20;36.10;;;;;;5120489;27;19966;-55
2023/05/08 06:58:31;;;;;;;;;;;22.20;36.30;;;;;;5117511;27;20355;-54
2023/05/08 07:01:00;;;;;;;;;;;22.30;36.30;;;;;;5121631;27;19964;-55
2023/05/08 07:03:26;;;;;;;;;;;22.50;36.20;;;;;;5101599;27;19996;-55
2023/05/08 07:05:52;;;;;;;;;;;22.50;36.00;;;;;;5124549;27;19911;-55
2023/05/08 07:08:17;;;;;;;;;;;22.60;36.10;;;;;;5118207;27;19912;-54
2023/05/08 07:10:43;;;;;;;;;;;22.50;36.40;;;;;;5108272;27;20313;-55
2023/05/08 07:13:08;;;;;;;;;;;22.40;36.70;;;;;;5123342;27;20022;-55
2023/05/08 07:15:34;;;;;;;;;;;22.30;36.90;;;;;;5117747;27;19955;-55
2023/05/08 07:17:59;;;;;;;;;;;22.10;37.30;;;;;;5120106;27;19919;-55
2023/05/08 07:20:25;;;;;;;;;;;21.90;37.60;;;;;;5102203;28;19912;-55
2023/05/08 07:22:50;;;;;;;;;;;21.80;38.10;;;;;;5105882;27;19977;-55
2023/05/08 07:25:16;;;;;;;;;;;21.60;38.30;;;;;;5105413;27;19921;-55
2023/05/08 07:27:41;;;;;;;;;;;21.50;38.70;;;;;;5118159;27;19916;-55
2023/05/08 07:30:07;;;;;;;;;;;21.40;39.00;;;;;;5118489;27;19931;-55
2023/05/08 07:32:32;;;;;;;;;;;21.30;39.30;;;;;;5126459;27;20311;-54
2023/05/08 07:34:58;;;;;;;;;;;21.20;39.60;;;;;;5130831;27;20024;-55
2023/05/08 07:37:24;;;;;;;;;;;21.10;39.90;;;;;;5123870;27;19968;-55
2023/05/08 07:39:49;;;;;;;;;;;21.10;40.10;;;;;;5131485;27;20422;-55
2023/05/08 07:42:16;;;;;;;;;;;21.10;40.20;;;;;;5126808;27;20320;-55
2023/05/08 07:44:42;;;;;;;;;;;21.00;40.20;;;;;;5110629;27;19915;-54
2023/05/08 07:47:08;;;;;;;;;;;21.00;40.50;;;;;;5124880;27;19918;-54
2023/05/08 07:49:33;;;;;;;;;;;21.00;40.60;;;;;;5127588;27;19921;-55
2023/05/08 07:51:59;;;;;;;;;;;21.10;40.60;;;;;;5126742;27;19922;-54
2023/05/08 07:54:24;;;;;;;;;;;21.20;40.40;;;;;;5108362;28;19997;-54
2023/05/08 07:56:49;;;;;;;;;;;21.40;40.30;;;;;;5131201;27;19916;-55
2023/05/08 07:59:15;;;;;;;;;;;21.50;40.10;;;;;;5110993;28;20397;-54
2023/05/08 08:01:45;;;;;;;;;;;21.70;39.90;;;;;;5130980;27;19911;-54
2023/05/08 08:04:11;;;;;;;;;;;21.80;39.80;;;;;;5135568;27;20014;-54
2023/05/08 08:06:37;;;;;;;;;;;21.70;39.80;;;;;;5132316;28;20010;-53
2023/05/08 08:09:02;;;;;;;;;;;21.70;40.00;;;;;;5131111;28;19911;-54
2023/05/08 08:11:28;;;;;;;;;;;21.60;40.20;;;;;;5122414;28;19965;-54
2023/05/08 08:13:53;;;;;;;;;;;21.50;40.30;;;;;;5122665;28;20014;-54
2023/05/08 08:16:19;;;;;;;;;;;21.50;40.50;;;;;;5115322;28;19912;-54
2023/05/08 08:18:44;;;;;;;;;;;21.40;40.70;;;;;;5117678;28;19908;-54
2023/05/08 08:21:10;;;;;;;;;;;21.40;40.80;;;;;;5130777;28;19949;-54
2023/05/08 08:23:35;;;;;;;;;;;21.30;41.00;;;;;;5130123;28;19923;-55
2023/05/08 08:26:01;;;;;;;;;;;21.30;41.00;;;;;;5113072;28;19911;-56
2023/05/08 08:28:26;;;;;;;;;;;21.30;41.10;;;;;;5128343;28;19915;-54
2023/05/08 08:30:52;;;;;;;;;;;21.40;41.10;;;;;;5111027;28;19915;-54
2023/05/08 08:33:17;;;;;;;;;;;21.50;41.10;;;;;;5129498;28;19922;-54
2023/05/08 08:35:42;;;;;;;;;;;21.60;40.90;;;;;;5127210;28;19920;-54
2023/05/08 08:38:08;;;;;;;;;;;21.60;40.70;;;;;;5131205;28;19923;-53
2023/05/08 08:40:40;;;;;;;;;;;21.70;40.70;;;;;;5126743;28;21140;-54
2023/05/08 08:43:06;;;;;;;;;;;21.80;40.60;;;;;;5122122;28;20363;-54
2023/05/08 08:45:31;;;;;;;;;;;21.90;40.50;;;;;;5125267;28;19918;-55
2023/05/08 08:47:58;;;;;;;;;;;22.10;40.30;;;;;;5130366;28;19912;-54
2023/05/08 08:50:24;;;;;;;;;;;22.10;40.20;;;;;;5106212;28;20008;-54
2023/05/08 08:52:56;;;;;;;;;;;22.20;40.10;;;;;;5117471;28;19923;-54
2023/05/08 08:55:25;;;;;;;;;;;22.30;40.00;;;;;;5122621;27;19938;-54
2023/05/08 08:58:09;;;;;;;;;;;22.30;40.00;;;;;;5104933;27;20116;-54
2023/05/08 09:00:36;;;;;;;;;;;22.30;40.00;;;;;;5123299;27;20670;-55
2023/05/08 09:03:01;;;;;;;;;;;22.30;40.20;;;;;;5125440;27;19973;-54
2023/05/08 09:05:26;;;;;;;;;;;22.20;40.40;;;;;;5109203;27;19973;-55
2023/05/08 09:07:55;;;;;;;;;;;22.10;40.60;;;;;;5106984;28;19912;-54
2023/05/08 09:10:21;;;;;;;;;;;22.00;40.70;;;;;;5132513;27;20380;-55
2023/05/08 09:12:46;;;;;;;;;;;21.90;40.90;;;;;;5132573;27;19934;-54
2023/05/08 09:15:12;;;;;;;;;;;22.00;41.00;;;;;;5131759;27;19911;-55
2023/05/08 09:17:37;;;;;;;;;;;21.90;41.20;;;;;;5123214;27;20438;-55
2023/05/08 09:20:03;;;;;;;;;;;21.80;41.50;;;;;;5104197;27;19919;-54
2023/05/08 09:22:29;;;;;;;;;;;21.80;41.50;;;;;;5127127;27;20367;-55
2023/05/08 09:24:58;;;;;;;;;;;21.60;41.50;;;;;;5126367;27;19919;-55
2023/05/08 09:27:24;;;;;;;;;;;21.60;41.60;;;;;;5122050;27;19955;-54
2023/05/08 09:30:00;;;;;;;;;;;21.60;41.60;;;;;;5128294;27;19987;-54
2023/05/08 09:32:26;;;;;;;;;;;21.70;41.80;;;;;;5133173;27;19918;-53
2023/05/08 09:34:52;;;;;;;;;;;21.80;41.80;;;;;;5132992;27;19911;-54
2023/05/08 09:37:17;;;;;;;;;;;22.00;41.60;;;;;;5132022;27;20403;-54
2023/05/08 09:39:45;;;;;;;;;;;22.10;41.30;;;;;;5126338;27;19919;-54
2023/05/08 09:42:11;;;;;;;;;;;22.30;41.10;;;;;;5127546;27;19915;-55
2023/05/08 09:44:43;;;;;;;;;;;22.40;40.90;;;;;;5130884;27;19915;-55
2023/05/08 09:47:09;;;;;;;;;;;22.50;40.90;;;;;;5133128;27;19911;-54
2023/05/08 09:49:35;;;;;;;;;;;22.50;40.90;;;;;;5132425;27;20026;-53
2023/05/08 09:52:00;;;;;;;;;;;22.50;41.00;;;;;;5132484;27;19915;-54
2023/05/08 09:54:25;;;;;;;;;;;22.40;41.10;;;;;;5128223;27;19912;-54
2023/05/08 09:56:51;;;;;;;;;;;22.40;41.10;;;;;;5128476;27;19911;-54
2023/05/08 09:59:26;;;;;;;;;;;22.30;41.10;;;;;;5127189;27;19912;-54
2023/05/08 10:01:52;;;;;;;;;;;22.30;41.40;;;;;;5132916;27;20351;-54
2023/05/08 10:04:17;;;;;;;;;;;22.20;41.20;;;;;;5133170;27;19914;-55
2023/05/08 10:06:43;;;;;;;;;;;22.20;41.50;;;;;;5123821;27;19916;-54
2023/05/08 10:09:11;;;;;;;;;;;22.20;41.80;;;;;;5119768;27;19965;-55
2023/05/08 10:11:37;;;;;;;;;;;22.20;41.80;;;;;;5124801;27;19923;-54
2023/05/08 10:14:03;;;;;;;;;;;22.20;41.80;;;;;;5125058;27;19965;-55
2023/05/08 10:16:28;;;;;;;;;;;22.20;41.70;;;;;;5125669;27;19920;-55
2023/05/08 10:18:56;;;;;;;;;;;22.20;41.80;;;;;;5133649;27;19915;-53
2023/05/08 10:21:21;;;;;;;;;;;22.30;41.60;;;;;;5093720;27;19919;-55
2023/05/08 10:23:46;;;;;;;;;;;22.30;41.90;;;;;;5111787;27;20919;-54
2023/05/08 10:26:13;;;;;;;;;;;22.20;41.90;;;;;;5128978;27;20295;-54
2023/05/08 10:28:43;;;;;;;;;;;22.20;42.20;;;;;;5090307;27;20059;-54
2023/05/08 10:31:10;;;;;;;;;;;22.10;42.30;;;;;;5126752;27;19915;-54
2023/05/08 10:33:35;;;;;;;;;;;22.10;42.40;;;;;;5119792;27;19971;-54
2023/05/08 10:36:01;;;;;;;;;;;22.20;42.30;;;;;;5127291;27;19920;-54
2023/05/08 10:38:26;;;;;;;;;;;22.30;42.10;;;;;;5124443;27;19915;-54
2023/05/08 10:40:56;;;;;;;;;;;22.30;42.20;;;;;;5126729;27;19920;-53
2023/05/08 10:43:23;;;;;;;;;;;22.40;42.30;;;;;;5125608;27;19921;-54
2023/05/08 10:45:48;;;;;;;;;;;22.40;42.20;;;;;;5127276;27;20314;-54
2023/05/08 10:48:17;;;;;;;;;;;22.50;42.30;;;;;;5130488;27;19930;-54
2023/05/08 10:50:42;;;;;;;;;;;22.40;42.20;;;;;;5121515;27;20291;-54
2023/05/08 10:53:12;;;;;;;;;;;22.40;42.50;;;;;;5126465;27;19915;-54
2023/05/08 10:55:38;;;;;;;;;;;22.40;42.60;;;;;;5107885;27;20026;-54
2023/05/08 10:58:14;;;;;;;;;;;22.30;42.70;;;;;;5124236;27;20001;-53
2023/05/08 11:00:51;;;;;;;;;;;22.30;42.70;;;;;;5110838;27;19915;-54
2023/05/08 11:03:17;;;;;;;;;;;22.30;42.80;;;;;;5120157;27;19930;-55
2023/05/08 11:05:46;;;;;;;;;;;22.30;42.70;;;;;;5130034;27;19911;-54
2023/05/08 11:08:16;;;;;;;;;;;22.40;42.60;;;;;;5107458;27;19999;-54
2023/05/08 11:10:42;;;;;;;;;;;22.40;43.10;;;;;;5126563;27;20287;-54
2023/05/08 11:13:07;;;;;;;;;;;22.40;42.80;;;;;;5118503;27;19912;-54
2023/05/08 11:15:36;;;;;;;;;;;22.40;42.60;;;;;;5128786;27;19923;-55
2023/05/08 11:18:08;;;;;;;;;;;22.40;42.90;;;;;;5103986;27;20296;-54
2023/05/08 11:20:40;;;;;;;;;;;22.30;43.10;;;;;;5122966;27;20049;-53
2023/05/08 11:23:21;;;;;;;;;;;22.30;43.30;;;;;;5124129;27;19919;-53
2023/05/08 11:25:47;;;;;;;;;;;22.20;43.40;;;;;;5113213;27;20352;-54
2023/05/08 11:28:12;;;;;;;;;;;22.20;43.70;;;;;;5107787;27;19956;-55
2023/05/08 11:30:38;;;;;;;;;;;22.20;43.60;;;;;;5109469;27;20014;-54
2023/05/08 11:33:03;;;;;;;;;;;22.30;43.70;;;;;;5123503;27;19976;-53
2023/05/08 11:35:48;;;;;;;;;;;22.30;43.40;;;;;;5127768;27;19912;-54
2023/05/08 11:38:15;;;;;;;;;;;22.40;43.50;;;;;;5127372;27;19923;-54
2023/05/08 11:41:04;;;;;;;;;;;22.40;43.30;;;;;;5099783;28;19928;-53
2023/05/08 11:43:32;;;;;;;;;;;22.50;43.20;;;;;;5096496;28;20057;-53
2023/05/08 11:46:04;;;;;;;;;;;22.50;43.10;;;;;;5110653;28;19912;-53
2023/05/08 11:48:30;;;;;;;;;;;22.40;42.90;;;;;;5102698;28;19912;-53
2023/05/08 11:50:56;;;;;;;;;;;22.40;43.20;;;;;;5105649;28;20333;-54
2023/05/08 11:53:21;;;;;;;;;;;22.40;43.00;;;;;;5105191;28;19935;-54
2023/05/08 11:55:47;;;;;;;;;;;22.40;42.80;;;;;;5107222;28;19957;-54
2023/05/08 11:58:15;;;;;;;;;;;22.40;43.40;;;;;;5102435;28;19912;-54
2023/05/08 12:00:44;;;;;;;;;;;22.40;43.70;;;;;;5107990;28;19916;-54
2023/05/08 12:03:10;;;;;;;;;;;22.40;43.20;;;;;;5110197;28;20344;-55
2023/05/08 12:05:36;;;;;;;;;;;22.40;42.90;;;;;;5109667;28;19998;-53
2023/05/08 12:08:01;;;;;;;;;;;22.50;42.40;;;;;;5109900;28;20019;-54
2023/05/08 12:10:27;;;;;;;;;;;22.70;42.10;;;;;;5108912;28;19943;-54
2023/05/08 12:12:52;;;;;;;;;;;22.70;42.10;;;;;;5108519;28;19924;-54
2023/05/08 12:15:17;;;;;;;;;;;22.70;42.10;;;;;;5107135;28;19916;-54
2023/05/08 12:17:43;;;;;;;;;;;22.80;41.80;;;;;;5104813;28;20006;-54
2023/05/08 12:20:15;;;;;;;;;;;22.80;42.00;;;;;;5109838;28;20297;-53
2023/05/08 12:22:41;;;;;;;;;;;22.70;42.60;;;;;;5108201;28;19923;-53
2023/05/08 12:25:07;;;;;;;;;;;22.70;43.10;;;;;;5110541;28;19916;-54
2023/05/08 12:27:32;;;;;;;;;;;22.60;42.90;;;;;;5107308;28;19954;-53
2023/05/08 12:29:57;;;;;;;;;;;22.60;42.60;;;;;;5110481;28;19962;-54
2023/05/08 12:32:23;;;;;;;;;;;22.60;42.90;;;;;;5107505;28;20295;-54
2023/05/08 12:34:48;;;;;;;;;;;22.60;42.20;;;;;;5103545;28;20010;-55
2023/05/08 12:37:25;;;;;;;;;;;22.60;42.60;;;;;;5115179;28;19912;-54
2023/05/08 12:39:50;;;;;;;;;;;22.70;42.10;;;;;;5114932;27;19915;-55
2023/05/08 12:42:16;;;;;;;;;;;22.70;43.10;;;;;;5135110;27;19922;-55
2023/05/08 12:44:41;;;;;;;;;;;22.60;42.60;;;;;;5132376;27;19926;-55
2023/05/08 12:47:07;;;;;;;;;;;22.60;42.50;;;;;;5106491;27;19918;-54
2023/05/08 12:49:32;;;;;;;;;;;22.70;42.50;;;;;;5126416;27;20025;-54
2023/05/08 12:52:05;;;;;;;;;;;22.70;42.40;;;;;;5124922;27;19919;-54
2023/05/08 12:54:40;;;;;;;;;;;22.70;42.40;;;;;;5125238;27;19915;-54
2023/05/08 12:57:10;;;;;;;;;;;22.60;42.70;;;;;;5131379;27;19919;-55
2023/05/08 12:59:35;;;;;;;;;;;22.60;42.20;;;;;;5127553;27;19965;-54
2023/05/08 13:02:01;;;;;;;;;;;22.60;42.00;;;;;;5114168;27;19950;-55
2023/05/08 13:04:26;;;;;;;;;;;22.60;41.80;;;;;;5132888;27;19911;-54
2023/05/08 13:06:53;;;;;;;;;;;22.60;41.90;;;;;;5124773;27;20295;-54
2023/05/08 13:09:18;;;;;;;;;;;22.60;42.00;;;;;;5121998;27;19967;-55
2023/05/08 13:11:43;;;;;;;;;;;22.50;42.00;;;;;;5127745;27;20018;-55
2023/05/08 13:14:09;;;;;;;;;;;22.60;41.80;;;;;;5130879;27;19911;-54
2023/05/08 13:17:00;;;;;;;;;;;22.50;41.40;;;;;;5133836;27;19916;-54
2023/05/08 13:19:26;;;;;;;;;;;22.60;41.40;;;;;;5125989;27;19922;-54
2023/05/08 13:21:51;;;;;;;;;;;22.60;41.20;;;;;;5111088;27;19956;-55
2023/05/08 13:24:17;;;;;;;;;;;22.60;41.40;;;;;;5130609;27;19911;-55
2023/05/08 13:26:42;;;;;;;;;;;22.60;41.50;;;;;;5133026;27;19915;-56
2023/05/08 13:29:08;;;;;;;;;;;22.60;41.20;;;;;;5131229;27;20375;-54
2023/05/08 13:31:33;;;;;;;;;;;22.60;41.10;;;;;;5134083;27;19915;-54
2023/05/08 13:33:59;;;;;;;;;;;22.60;40.60;;;;;;5114005;27;19912;-55
2023/05/08 13:36:26;;;;;;;;;;;22.70;40.60;;;;;;5133557;27;20009;-55
2023/05/08 13:38:53;;;;;;;;;;;22.70;40.80;;;;;;5097043;27;19956;-54
2023/05/08 13:41:19;;;;;;;;;;;22.70;40.90;;;;;;5133720;27;19931;-55
2023/05/08 13:43:44;;;;;;;;;;;22.70;40.40;;;;;;5131868;27;19915;-55
2023/05/08 13:46:10;;;;;;;;;;;22.70;40.10;;;;;;5114347;27;20437;-55
2023/05/08 13:48:35;;;;;;;;;;;22.80;40.00;;;;;;5128247;27;20287;-55
2023/05/08 13:51:00;;;;;;;;;;;22.80;40.00;;;;;;5123063;27;19956;-54
2023/05/08 13:53:26;;;;;;;;;;;22.80;40.20;;;;;;5113706;27;20002;-54
2023/05/08 13:55:51;;;;;;;;;;;22.80;40.10;;;;;;5127877;27;19953;-55
2023/05/08 13:58:17;;;;;;;;;;;22.80;39.80;;;;;;5130830;27;19915;-55
2023/05/08 14:00:42;;;;;;;;;;;22.80;39.50;;;;;;5132853;27;19926;-55
2023/05/08 14:03:08;;;;;;;;;;;22.90;39.50;;;;;;5129246;27;19963;-54
2023/05/08 14:05:33;;;;;;;;;;;22.90;39.70;;;;;;5130981;27;20298;-54
2023/05/08 14:07:58;;;;;;;;;;;22.80;40.20;;;;;;5127917;27;20270;-54
2023/05/08 14:10:24;;;;;;;;;;;22.80;40.10;;;;;;5132105;27;19956;-55
2023/05/08 14:12:49;;;;;;;;;;;22.90;39.60;;;;;;5133049;27;19907;-55
2023/05/08 14:15:15;;;;;;;;;;;22.90;39.60;;;;;;5132258;27;19964;-55